sensor_id;sensor_type;location;lat;lon;timestamp;P1;P2;P0
72023;PMS5003;59889;50.700;5.440;2023-04-03T00:01:33;9;8;
72023;PMS5003;59889;50.700;5.440;2023-04-03T00:03:59;8;8;
72023;PMS5003;59889;50.700;5.440;2023-04-03T00:06:24;9;9;
72023;PMS5003;59889;50.700;5.440;2023-04-03T00:08:49;8;8;
72023;PMS5003;59889;50.700;5.440;2023-04-03T00:11:14;9;9;
72023;PMS5003;59889;50.700;5.440;2023-04-03T00:13:39;9;9;
72023;PMS5003;59889;50.700;5.440;2023-04-03T00:16:04;9;9;
72023;PMS5003;59889;50.700;5.440;2023-04-03T00:18:29;10;9;
72023;PMS5003;59889;50.700;5.440;2023-04-03T00:20:54;8;8;
72023;PMS5003;59889;50.700;5.440;2023-04-03T00:23:19;8;8;
72023;PMS5003;59889;50.700;5.440;2023-04-03T00:25:44;12;11;
72023;PMS5003;59889;50.700;5.440;2023-04-03T00:28:09;8;8;
72023;PMS5003;59889;50.700;5.440;2023-04-03T00:30:35;9;9;
72023;PMS5003;59889;50.700;5.440;2023-04-03T00:33:00;9;8;
72023;PMS5003;59889;50.700;5.440;2023-04-03T00:35:25;9;8;
72023;PMS5003;59889;50.700;5.440;2023-04-03T00:37:50;8;8;
72023;PMS5003;59889;50.700;5.440;2023-04-03T00:40:15;9;9;
72023;PMS5003;59889;50.700;5.440;2023-04-03T00:42:41;8;8;
72023;PMS5003;59889;50.700;5.440;2023-04-03T00:47:31;9;8;
72023;PMS5003;59889;50.700;5.440;2023-04-03T00:49:56;8;8;
72023;PMS5003;59889;50.700;5.440;2023-04-03T00:52:22;7;6;
72023;PMS5003;59889;50.700;5.440;2023-04-03T00:54:47;10;9;
72023;PMS5003;59889;50.700;5.440;2023-04-03T00:57:11;7;7;
72023;PMS5003;59889;50.700;5.440;2023-04-03T00:59:38;9;9;
72023;PMS5003;59889;50.700;5.440;2023-04-03T01:02:01;10;9;
72023;PMS5003;59889;50.700;5.440;2023-04-03T01:04:27;9;8;
72023;PMS5003;59889;50.700;5.440;2023-04-03T01:06:52;8;8;
72023;PMS5003;59889;50.700;5.440;2023-04-03T01:09:17;10;9;
72023;PMS5003;59889;50.700;5.440;2023-04-03T01:11:42;8;8;
72023;PMS5003;59889;50.700;5.440;2023-04-03T01:14:07;8;8;
72023;PMS5003;59889;50.700;5.440;2023-04-03T01:16:32;8;8;
72023;PMS5003;59889;50.700;5.440;2023-04-03T01:18:57;8;8;
72023;PMS5003;59889;50.700;5.440;2023-04-03T01:23:51;8;8;
72023;PMS5003;59889;50.700;5.440;2023-04-03T01:26:12;7;7;
72023;PMS5003;59889;50.700;5.440;2023-04-03T01:28:37;8;8;
72023;PMS5003;59889;50.700;5.440;2023-04-03T01:31:05;6;6;
72023;PMS5003;59889;50.700;5.440;2023-04-03T01:33:28;8;8;
72023;PMS5003;59889;50.700;5.440;2023-04-03T01:35:53;9;8;
72023;PMS5003;59889;50.700;5.440;2023-04-03T01:38:18;7;7;
72023;PMS5003;59889;50.700;5.440;2023-04-03T01:40:43;8;8;
72023;PMS5003;59889;50.700;5.440;2023-04-03T01:43:08;9;8;
72023;PMS5003;59889;50.700;5.440;2023-04-03T01:45:33;8;8;
72023;PMS5003;59889;50.700;5.440;2023-04-03T01:47:59;10;10;
72023;PMS5003;59889;50.700;5.440;2023-04-03T01:50:24;8;7;
72023;PMS5003;59889;50.700;5.440;2023-04-03T01:52:49;9;7;
72023;PMS5003;59889;50.700;5.440;2023-04-03T01:55:14;8;8;
72023;PMS5003;59889;50.700;5.440;2023-04-03T01:57:39;10;10;
72023;PMS5003;59889;50.700;5.440;2023-04-03T02:00:05;6;6;
72023;PMS5003;59889;50.700;5.440;2023-04-03T02:02:29;7;6;
72023;PMS5003;59889;50.700;5.440;2023-04-03T02:04:54;7;7;
72023;PMS5003;59889;50.700;5.440;2023-04-03T02:07:19;7;7;
72023;PMS5003;59889;50.700;5.440;2023-04-03T02:09:45;7;7;
72023;PMS5003;59889;50.700;5.440;2023-04-03T02:12:10;6;6;
72023;PMS5003;59889;50.700;5.440;2023-04-03T02:14:35;11;9;
72023;PMS5003;59889;50.700;5.440;2023-04-03T02:17:00;8;8;
72023;PMS5003;59889;50.700;5.440;2023-04-03T02:19:25;8;8;
72023;PMS5003;59889;50.700;5.440;2023-04-03T02:21:50;10;7;
72023;PMS5003;59889;50.700;5.440;2023-04-03T02:24:15;6;6;
72023;PMS5003;59889;50.700;5.440;2023-04-03T02:26:40;9;9;
72023;PMS5003;59889;50.700;5.440;2023-04-03T02:29:05;8;8;
72023;PMS5003;59889;50.700;5.440;2023-04-03T02:31:31;7;6;
72023;PMS5003;59889;50.700;5.440;2023-04-03T02:33:55;7;7;
72023;PMS5003;59889;50.700;5.440;2023-04-03T02:36:21;6;6;
72023;PMS5003;59889;50.700;5.440;2023-04-03T02:38:46;8;8;
72023;PMS5003;59889;50.700;5.440;2023-04-03T02:41:11;8;7;
72023;PMS5003;59889;50.700;5.440;2023-04-03T02:43:36;6;6;
72023;PMS5003;59889;50.700;5.440;2023-04-03T02:46:01;7;7;
72023;PMS5003;59889;50.700;5.440;2023-04-03T02:48:26;7;7;
72023;PMS5003;59889;50.700;5.440;2023-04-03T02:50:51;7;7;
72023;PMS5003;59889;50.700;5.440;2023-04-03T02:53:16;9;8;
72023;PMS5003;59889;50.700;5.440;2023-04-03T02:55:41;7;7;
72023;PMS5003;59889;50.700;5.440;2023-04-03T02:58:07;7;7;
72023;PMS5003;59889;50.700;5.440;2023-04-03T03:00:31;7;6;
72023;PMS5003;59889;50.700;5.440;2023-04-03T03:02:57;7;7;
72023;PMS5003;59889;50.700;5.440;2023-04-03T03:05:22;7;7;
72023;PMS5003;59889;50.700;5.440;2023-04-03T03:07:47;6;6;
72023;PMS5003;59889;50.700;5.440;2023-04-03T03:10:12;6;6;
72023;PMS5003;59889;50.700;5.440;2023-04-03T03:12:37;8;7;
72023;PMS5003;59889;50.700;5.440;2023-04-03T03:15:02;6;6;
72023;PMS5003;59889;50.700;5.440;2023-04-03T03:17:27;7;6;
72023;PMS5003;59889;50.700;5.440;2023-04-03T03:19:52;6;6;
72023;PMS5003;59889;50.700;5.440;2023-04-03T03:22:17;6;6;
72023;PMS5003;59889;50.700;5.440;2023-04-03T03:24:42;8;7;
72023;PMS5003;59889;50.700;5.440;2023-04-03T03:27:08;9;7;
72023;PMS5003;59889;50.700;5.440;2023-04-03T03:29:33;7;7;
72023;PMS5003;59889;50.700;5.440;2023-04-03T03:31:58;5;5;
72023;PMS5003;59889;50.700;5.440;2023-04-03T03:34:23;7;7;
72023;PMS5003;59889;50.700;5.440;2023-04-03T03:36:48;7;7;
72023;PMS5003;59889;50.700;5.440;2023-04-03T03:39:13;7;7;
72023;PMS5003;59889;50.700;5.440;2023-04-03T03:41:38;7;7;
72023;PMS5003;59889;50.700;5.440;2023-04-03T03:44:03;7;6;
72023;PMS5003;59889;50.700;5.440;2023-04-03T03:46:28;5;5;
72023;PMS5003;59889;50.700;5.440;2023-04-03T03:48:53;7;6;
72023;PMS5003;59889;50.700;5.440;2023-04-03T03:51:18;6;6;
72023;PMS5003;59889;50.700;5.440;2023-04-03T03:53:44;6;6;
72023;PMS5003;59889;50.700;5.440;2023-04-03T03:56:09;6;6;
72023;PMS5003;59889;50.700;5.440;2023-04-03T03:58:34;4;4;
72023;PMS5003;59889;50.700;5.440;2023-04-03T04:01:00;4;4;
72023;PMS5003;59889;50.700;5.440;2023-04-03T04:03:24;5;4;
72023;PMS5003;59889;50.700;5.440;2023-04-03T04:05:49;6;6;
72023;PMS5003;59889;50.700;5.440;2023-04-03T04:08:14;11;9;
72023;PMS5003;59889;50.700;5.440;2023-04-03T04:10:39;10;10;
72023;PMS5003;59889;50.700;5.440;2023-04-03T04:13:04;11;11;
72023;PMS5003;59889;50.700;5.440;2023-04-03T04:15:29;12;10;
72023;PMS5003;59889;50.700;5.440;2023-04-03T04:17:55;10;10;
72023;PMS5003;59889;50.700;5.440;2023-04-03T04:20:20;12;11;
72023;PMS5003;59889;50.700;5.440;2023-04-03T04:22:45;12;12;
72023;PMS5003;59889;50.700;5.440;2023-04-03T04:25:10;11;10;
72023;PMS5003;59889;50.700;5.440;2023-04-03T04:27:36;13;13;
72023;PMS5003;59889;50.700;5.440;2023-04-03T04:30:01;10;10;
72023;PMS5003;59889;50.700;5.440;2023-04-03T04:32:26;11;10;
72023;PMS5003;59889;50.700;5.440;2023-04-03T04:34:51;12;11;
72023;PMS5003;59889;50.700;5.440;2023-04-03T04:37:16;9;8;
72023;PMS5003;59889;50.700;5.440;2023-04-03T04:39:41;8;8;
72023;PMS5003;59889;50.700;5.440;2023-04-03T04:42:06;10;9;
72023;PMS5003;59889;50.700;5.440;2023-04-03T04:44:31;11;10;
72023;PMS5003;59889;50.700;5.440;2023-04-03T04:46:56;13;12;
72023;PMS5003;59889;50.700;5.440;2023-04-03T04:49:21;11;10;
72023;PMS5003;59889;50.700;5.440;2023-04-03T04:51:47;9;9;
72023;PMS5003;59889;50.700;5.440;2023-04-03T04:54:12;10;10;
72023;PMS5003;59889;50.700;5.440;2023-04-03T04:56:37;9;8;
72023;PMS5003;59889;50.700;5.440;2023-04-03T04:59:02;8;7;
72023;PMS5003;59889;50.700;5.440;2023-04-03T05:01:27;7;7;
72023;PMS5003;59889;50.700;5.440;2023-04-03T05:03:52;7;7;
72023;PMS5003;59889;50.700;5.440;2023-04-03T05:06:17;11;11;
72023;PMS5003;59889;50.700;5.440;2023-04-03T05:08:42;7;7;
72023;PMS5003;59889;50.700;5.440;2023-04-03T05:11:07;9;9;
72023;PMS5003;59889;50.700;5.440;2023-04-03T05:13:33;9;9;
72023;PMS5003;59889;50.700;5.440;2023-04-03T05:15:58;8;8;
72023;PMS5003;59889;50.700;5.440;2023-04-03T05:18:23;7;7;
72023;PMS5003;59889;50.700;5.440;2023-04-03T05:20:48;12;10;
72023;PMS5003;59889;50.700;5.440;2023-04-03T05:23:13;8;8;
72023;PMS5003;59889;50.700;5.440;2023-04-03T05:25:38;8;8;
72023;PMS5003;59889;50.700;5.440;2023-04-03T05:28:03;9;9;
72023;PMS5003;59889;50.700;5.440;2023-04-03T05:30:29;7;6;
72023;PMS5003;59889;50.700;5.440;2023-04-03T05:32:54;10;9;
72023;PMS5003;59889;50.700;5.440;2023-04-03T05:35:19;9;8;
72023;PMS5003;59889;50.700;5.440;2023-04-03T05:37:44;9;9;
72023;PMS5003;59889;50.700;5.440;2023-04-03T05:40:09;8;8;
72023;PMS5003;59889;50.700;5.440;2023-04-03T05:42:34;9;8;
72023;PMS5003;59889;50.700;5.440;2023-04-03T05:45:00;8;8;
72023;PMS5003;59889;50.700;5.440;2023-04-03T05:47:25;9;8;
72023;PMS5003;59889;50.700;5.440;2023-04-03T05:49:51;8;8;
72023;PMS5003;59889;50.700;5.440;2023-04-03T05:52:18;8;8;
72023;PMS5003;59889;50.700;5.440;2023-04-03T05:54:41;9;8;
72023;PMS5003;59889;50.700;5.440;2023-04-03T05:57:06;8;8;
72023;PMS5003;59889;50.700;5.440;2023-04-03T05:59:31;8;8;
72023;PMS5003;59889;50.700;5.440;2023-04-03T06:01:56;8;7;
72023;PMS5003;59889;50.700;5.440;2023-04-03T06:04:21;8;8;
72023;PMS5003;59889;50.700;5.440;2023-04-03T06:06:47;7;7;
72023;PMS5003;59889;50.700;5.440;2023-04-03T06:09:12;8;8;
72023;PMS5003;59889;50.700;5.440;2023-04-03T06:11:36;10;9;
72023;PMS5003;59889;50.700;5.440;2023-04-03T06:14:02;8;8;
72023;PMS5003;59889;50.700;5.440;2023-04-03T06:16:27;8;8;
72023;PMS5003;59889;50.700;5.440;2023-04-03T06:18:52;9;9;
72023;PMS5003;59889;50.700;5.440;2023-04-03T06:21:17;8;8;
72023;PMS5003;59889;50.700;5.440;2023-04-03T06:23:42;7;7;
72023;PMS5003;59889;50.700;5.440;2023-04-03T06:26:07;7;7;
72023;PMS5003;59889;50.700;5.440;2023-04-03T06:28:32;8;8;
72023;PMS5003;59889;50.700;5.440;2023-04-03T06:30:57;9;9;
72023;PMS5003;59889;50.700;5.440;2023-04-03T06:33:22;5;5;
72023;PMS5003;59889;50.700;5.440;2023-04-03T06:35:47;7;7;
72023;PMS5003;59889;50.700;5.440;2023-04-03T06:38:13;8;8;
72023;PMS5003;59889;50.700;5.440;2023-04-03T06:40:38;9;9;
72023;PMS5003;59889;50.700;5.440;2023-04-03T06:43:03;9;7;
72023;PMS5003;59889;50.700;5.440;2023-04-03T06:45:28;7;6;
72023;PMS5003;59889;50.700;5.440;2023-04-03T06:47:53;7;7;
72023;PMS5003;59889;50.700;5.440;2023-04-03T06:50:18;10;10;
72023;PMS5003;59889;50.700;5.440;2023-04-03T06:52:43;8;7;
72023;PMS5003;59889;50.700;5.440;2023-04-03T06:55:09;10;10;
72023;PMS5003;59889;50.700;5.440;2023-04-03T06:57:34;7;6;
72023;PMS5003;59889;50.700;5.440;2023-04-03T06:59:59;7;5;
72023;PMS5003;59889;50.700;5.440;2023-04-03T07:02:24;8;8;
72023;PMS5003;59889;50.700;5.440;2023-04-03T07:04:49;7;7;
72023;PMS5003;59889;50.700;5.440;2023-04-03T07:07:14;7;7;
72023;PMS5003;59889;50.700;5.440;2023-04-03T07:09:40;8;8;
72023;PMS5003;59889;50.700;5.440;2023-04-03T07:12:05;6;6;
72023;PMS5003;59889;50.700;5.440;2023-04-03T07:14:30;8;6;
72023;PMS5003;59889;50.700;5.440;2023-04-03T07:16:55;8;8;
72023;PMS5003;59889;50.700;5.440;2023-04-03T07:19:20;7;6;
72023;PMS5003;59889;50.700;5.440;2023-04-03T07:21:45;6;6;
72023;PMS5003;59889;50.700;5.440;2023-04-03T07:24:10;6;6;
72023;PMS5003;59889;50.700;5.440;2023-04-03T07:26:35;6;6;
72023;PMS5003;59889;50.700;5.440;2023-04-03T07:29:00;8;7;
72023;PMS5003;59889;50.700;5.440;2023-04-03T07:31:25;7;7;
72023;PMS5003;59889;50.700;5.440;2023-04-03T07:33:50;6;6;
72023;PMS5003;59889;50.700;5.440;2023-04-03T07:36:18;8;8;
72023;PMS5003;59889;50.700;5.440;2023-04-03T07:38:42;6;6;
72023;PMS5003;59889;50.700;5.440;2023-04-03T07:41:10;8;8;
72023;PMS5003;59889;50.700;5.440;2023-04-03T07:43:33;9;9;
72023;PMS5003;59889;50.700;5.440;2023-04-03T07:45:59;7;7;
72023;PMS5003;59889;50.700;5.440;2023-04-03T07:48:25;6;6;
72023;PMS5003;59889;50.700;5.440;2023-04-03T07:50:49;9;7;
72023;PMS5003;59889;50.700;5.440;2023-04-03T07:53:15;6;6;
72023;PMS5003;59889;50.700;5.440;2023-04-03T07:55:39;7;7;
72023;PMS5003;59889;50.700;5.440;2023-04-03T07:58:04;7;6;
72023;PMS5003;59889;50.700;5.440;2023-04-03T08:00:29;6;6;
72023;PMS5003;59889;50.700;5.440;2023-04-03T08:02:54;7;7;
72023;PMS5003;59889;50.700;5.440;2023-04-03T08:05:20;7;6;
72023;PMS5003;59889;50.700;5.440;2023-04-03T08:07:45;7;7;
72023;PMS5003;59889;50.700;5.440;2023-04-03T08:10:10;7;7;
72023;PMS5003;59889;50.700;5.440;2023-04-03T08:12:35;9;7;
72023;PMS5003;59889;50.700;5.440;2023-04-03T08:15:00;6;6;
72023;PMS5003;59889;50.700;5.440;2023-04-03T08:17:25;7;7;
72023;PMS5003;59889;50.700;5.440;2023-04-03T08:19:50;7;7;
72023;PMS5003;59889;50.700;5.440;2023-04-03T08:22:15;6;6;
72023;PMS5003;59889;50.700;5.440;2023-04-03T08:24:40;7;7;
72023;PMS5003;59889;50.700;5.440;2023-04-03T08:27:05;6;6;
72023;PMS5003;59889;50.700;5.440;2023-04-03T08:29:30;7;7;
72023;PMS5003;59889;50.700;5.440;2023-04-03T08:31:55;7;7;
72023;PMS5003;59889;50.700;5.440;2023-04-03T08:34:21;6;6;
72023;PMS5003;59889;50.700;5.440;2023-04-03T08:36:46;7;7;
72023;PMS5003;59889;50.700;5.440;2023-04-03T08:39:11;5;5;
72023;PMS5003;59889;50.700;5.440;2023-04-03T08:41:36;6;6;
72023;PMS5003;59889;50.700;5.440;2023-04-03T08:44:03;8;7;
72023;PMS5003;59889;50.700;5.440;2023-04-03T08:46:28;8;8;
72023;PMS5003;59889;50.700;5.440;2023-04-03T08:48:51;8;7;
72023;PMS5003;59889;50.700;5.440;2023-04-03T08:51:17;6;6;
72023;PMS5003;59889;50.700;5.440;2023-04-03T08:53:42;7;7;
72023;PMS5003;59889;50.700;5.440;2023-04-03T08:56:07;7;7;
72023;PMS5003;59889;50.700;5.440;2023-04-03T08:58:33;7;7;
72023;PMS5003;59889;50.700;5.440;2023-04-03T09:00:58;6;5;
72023;PMS5003;59889;50.700;5.440;2023-04-03T09:03:22;7;6;
72023;PMS5003;59889;50.700;5.440;2023-04-03T09:05:48;7;7;
72023;PMS5003;59889;50.700;5.440;2023-04-03T09:08:14;7;6;
72023;PMS5003;59889;50.700;5.440;2023-04-03T09:10:37;8;8;
72023;PMS5003;59889;50.700;5.440;2023-04-03T09:13:03;8;8;
72023;PMS5003;59889;50.700;5.440;2023-04-03T09:15:27;6;6;
72023;PMS5003;59889;50.700;5.440;2023-04-03T09:17:57;7;7;
72023;PMS5003;59889;50.700;5.440;2023-04-03T09:20:19;7;6;
72023;PMS5003;59889;50.700;5.440;2023-04-03T09:22:42;7;7;
72023;PMS5003;59889;50.700;5.440;2023-04-03T09:25:10;7;6;
72023;PMS5003;59889;50.700;5.440;2023-04-03T09:27:32;6;6;
72023;PMS5003;59889;50.700;5.440;2023-04-03T09:29:57;8;7;
72023;PMS5003;59889;50.700;5.440;2023-04-03T09:32:26;7;7;
72023;PMS5003;59889;50.700;5.440;2023-04-03T09:34:47;5;5;
72023;PMS5003;59889;50.700;5.440;2023-04-03T09:37:13;8;7;
72023;PMS5003;59889;50.700;5.440;2023-04-03T09:42:03;7;7;
72023;PMS5003;59889;50.700;5.440;2023-04-03T09:44:29;6;6;
72023;PMS5003;59889;50.700;5.440;2023-04-03T09:46:53;6;6;
72023;PMS5003;59889;50.700;5.440;2023-04-03T09:49:18;7;7;
72023;PMS5003;59889;50.700;5.440;2023-04-03T09:51:43;7;7;
72023;PMS5003;59889;50.700;5.440;2023-04-03T09:56:33;8;8;
72023;PMS5003;59889;50.700;5.440;2023-04-03T09:59:06;7;6;
72023;PMS5003;59889;50.700;5.440;2023-04-03T10:01:25;7;7;
72023;PMS5003;59889;50.700;5.440;2023-04-03T10:03:50;6;6;
72023;PMS5003;59889;50.700;5.440;2023-04-03T10:08:39;5;5;
72023;PMS5003;59889;50.700;5.440;2023-04-03T10:11:08;6;6;
72023;PMS5003;59889;50.700;5.440;2023-04-03T10:13:29;7;6;
72023;PMS5003;59889;50.700;5.440;2023-04-03T10:15:55;7;6;
72023;PMS5003;59889;50.700;5.440;2023-04-03T10:18:25;6;6;
72023;PMS5003;59889;50.700;5.440;2023-04-03T10:20:44;7;7;
72023;PMS5003;59889;50.700;5.440;2023-04-03T10:23:15;7;7;
72023;PMS5003;59889;50.700;5.440;2023-04-03T10:25:35;6;5;
72023;PMS5003;59889;50.700;5.440;2023-04-03T10:28:00;6;6;
72023;PMS5003;59889;50.700;5.440;2023-04-03T10:30:29;7;6;
72023;PMS5003;59889;50.700;5.440;2023-04-03T10:32:53;6;6;
72023;PMS5003;59889;50.700;5.440;2023-04-03T10:35:16;6;6;
72023;PMS5003;59889;50.700;5.440;2023-04-03T10:37:43;7;7;
72023;PMS5003;59889;50.700;5.440;2023-04-03T10:40:09;5;5;
72023;PMS5003;59889;50.700;5.440;2023-04-03T10:42:32;6;6;
72023;PMS5003;59889;50.700;5.440;2023-04-03T10:44:59;5;5;
72023;PMS5003;59889;50.700;5.440;2023-04-03T10:47:21;6;6;
72023;PMS5003;59889;50.700;5.440;2023-04-03T10:49:48;6;5;
72023;PMS5003;59889;50.700;5.440;2023-04-03T10:52:12;6;6;
72023;PMS5003;59889;50.700;5.440;2023-04-03T10:54:36;7;6;
72023;PMS5003;59889;50.700;5.440;2023-04-03T10:57:01;5;5;
72023;PMS5003;59889;50.700;5.440;2023-04-03T10:59:26;8;7;
72023;PMS5003;59889;50.700;5.440;2023-04-03T11:01:51;4;4;
72023;PMS5003;59889;50.700;5.440;2023-04-03T11:04:16;7;7;
72023;PMS5003;59889;50.700;5.440;2023-04-03T11:06:42;8;7;
72023;PMS5003;59889;50.700;5.440;2023-04-03T11:09:07;6;6;
72023;PMS5003;59889;50.700;5.440;2023-04-03T11:11:32;7;5;
72023;PMS5003;59889;50.700;5.440;2023-04-03T11:13:57;7;6;
72023;PMS5003;59889;50.700;5.440;2023-04-03T11:16:23;3;3;
72023;PMS5003;59889;50.700;5.440;2023-04-03T11:18:47;5;4;
72023;PMS5003;59889;50.700;5.440;2023-04-03T11:21:12;5;5;
72023;PMS5003;59889;50.700;5.440;2023-04-03T11:23:37;5;5;
72023;PMS5003;59889;50.700;5.440;2023-04-03T11:26:06;6;6;
72023;PMS5003;59889;50.700;5.440;2023-04-03T11:28:27;7;6;
72023;PMS5003;59889;50.700;5.440;2023-04-03T11:30:53;6;6;
72023;PMS5003;59889;50.700;5.440;2023-04-03T11:33:20;5;5;
72023;PMS5003;59889;50.700;5.440;2023-04-03T11:35:42;4;4;
72023;PMS5003;59889;50.700;5.440;2023-04-03T11:38:10;5;5;
72023;PMS5003;59889;50.700;5.440;2023-04-03T11:40:33;5;5;
72023;PMS5003;59889;50.700;5.440;2023-04-03T11:43:02;6;5;
72023;PMS5003;59889;50.700;5.440;2023-04-03T11:45:25;6;5;
72023;PMS5003;59889;50.700;5.440;2023-04-03T11:47:48;5;5;
72023;PMS5003;59889;50.700;5.440;2023-04-03T11:55:35;5;5;
72023;PMS5003;59889;50.700;5.440;2023-04-03T11:59:53;5;5;
72023;PMS5003;59889;50.700;5.440;2023-04-03T12:04:43;5;5;
72023;PMS5003;59889;50.700;5.440;2023-04-03T12:07:13;4;4;
72023;PMS5003;59889;50.700;5.440;2023-04-03T12:09:35;6;6;
72023;PMS5003;59889;50.700;5.440;2023-04-03T12:11:59;6;5;
72023;PMS5003;59889;50.700;5.440;2023-04-03T12:14:24;5;5;
72023;PMS5003;59889;50.700;5.440;2023-04-03T12:16:49;4;4;
72023;PMS5003;59889;50.700;5.440;2023-04-03T12:24:15;5;4;
72023;PMS5003;59889;50.700;5.440;2023-04-03T12:26:32;5;5;
72023;PMS5003;59889;50.700;5.440;2023-04-03T12:28:55;6;5;
72023;PMS5003;59889;50.700;5.440;2023-04-03T12:31:20;5;5;
72023;PMS5003;59889;50.700;5.440;2023-04-03T12:33:50;4;4;
72023;PMS5003;59889;50.700;5.440;2023-04-03T12:36:11;6;4;
72023;PMS5003;59889;50.700;5.440;2023-04-03T12:38:41;6;6;
72023;PMS5003;59889;50.700;5.440;2023-04-03T12:41:04;5;5;
72023;PMS5003;59889;50.700;5.440;2023-04-03T12:43:29;5;4;
72023;PMS5003;59889;50.700;5.440;2023-04-03T12:45:51;4;4;
72023;PMS5003;59889;50.700;5.440;2023-04-03T12:48:16;5;5;
72023;PMS5003;59889;50.700;5.440;2023-04-03T12:50:40;6;6;
72023;PMS5003;59889;50.700;5.440;2023-04-03T12:53:06;4;4;
72023;PMS5003;59889;50.700;5.440;2023-04-03T12:55:31;4;4;
72023;PMS5003;59889;50.700;5.440;2023-04-03T12:57:56;4;4;
72023;PMS5003;59889;50.700;5.440;2023-04-03T13:00:25;4;4;
72023;PMS5003;59889;50.700;5.440;2023-04-03T13:02:46;4;4;
72023;PMS5003;59889;50.700;5.440;2023-04-03T13:05:13;4;4;
72023;PMS5003;59889;50.700;5.440;2023-04-03T13:07:36;5;4;
72023;PMS5003;59889;50.700;5.440;2023-04-03T13:10:03;4;4;
72023;PMS5003;59889;50.700;5.440;2023-04-03T13:12:26;3;3;
72023;PMS5003;59889;50.700;5.440;2023-04-03T13:14:52;4;4;
72023;PMS5003;59889;50.700;5.440;2023-04-03T13:17:16;4;4;
72023;PMS5003;59889;50.700;5.440;2023-04-03T13:19:42;4;4;
72023;PMS5003;59889;50.700;5.440;2023-04-03T13:22:07;3;3;
72023;PMS5003;59889;50.700;5.440;2023-04-03T13:24:33;5;5;
72023;PMS5003;59889;50.700;5.440;2023-04-03T13:26:57;4;4;
72023;PMS5003;59889;50.700;5.440;2023-04-03T13:29:23;3;3;
72023;PMS5003;59889;50.700;5.440;2023-04-03T13:31:47;4;4;
72023;PMS5003;59889;50.700;5.440;2023-04-03T13:34:13;4;4;
72023;PMS5003;59889;50.700;5.440;2023-04-03T13:36:38;4;4;
72023;PMS5003;59889;50.700;5.440;2023-04-03T13:39:18;4;4;
72023;PMS5003;59889;50.700;5.440;2023-04-03T13:41:29;4;4;
72023;PMS5003;59889;50.700;5.440;2023-04-03T13:43:52;4;4;
72023;PMS5003;59889;50.700;5.440;2023-04-03T13:46:23;4;4;
72023;PMS5003;59889;50.700;5.440;2023-04-03T13:48:44;5;5;
72023;PMS5003;59889;50.700;5.440;2023-04-03T13:53:33;3;3;
72023;PMS5003;59889;50.700;5.440;2023-04-03T13:56:00;4;4;
72023;PMS5003;59889;50.700;5.440;2023-04-03T13:58:23;4;3;
72023;PMS5003;59889;50.700;5.440;2023-04-03T14:00:50;3;3;
72023;PMS5003;59889;50.700;5.440;2023-04-03T14:03:14;3;3;
72023;PMS5003;59889;50.700;5.440;2023-04-03T14:05:38;5;5;
72023;PMS5003;59889;50.700;5.440;2023-04-03T14:08:03;4;4;
72023;PMS5003;59889;50.700;5.440;2023-04-03T14:10:29;3;3;
72023;PMS5003;59889;50.700;5.440;2023-04-03T14:12:53;5;5;
72023;PMS5003;59889;50.700;5.440;2023-04-03T14:15:20;4;3;
72023;PMS5003;59889;50.700;5.440;2023-04-03T14:17:44;3;3;
72023;PMS5003;59889;50.700;5.440;2023-04-03T14:20:10;4;4;
72023;PMS5003;59889;50.700;5.440;2023-04-03T14:22:34;3;3;
72023;PMS5003;59889;50.700;5.440;2023-04-03T14:24:59;3;3;
72023;PMS5003;59889;50.700;5.440;2023-04-03T14:27:25;3;3;
72023;PMS5003;59889;50.700;5.440;2023-04-03T14:29:50;3;3;
72023;PMS5003;59889;50.700;5.440;2023-04-03T14:32:15;3;3;
72023;PMS5003;59889;50.700;5.440;2023-04-03T14:34:40;3;3;
72023;PMS5003;59889;50.700;5.440;2023-04-03T14:37:04;2;2;
72023;PMS5003;59889;50.700;5.440;2023-04-03T14:39:29;4;3;
72023;PMS5003;59889;50.700;5.440;2023-04-03T14:41:54;4;4;
72023;PMS5003;59889;50.700;5.440;2023-04-03T14:44:20;5;5;
72023;PMS5003;59889;50.700;5.440;2023-04-03T14:46:45;3;3;
72023;PMS5003;59889;50.700;5.440;2023-04-03T14:49:12;3;3;
72023;PMS5003;59889;50.700;5.440;2023-04-03T14:51:35;3;3;
72023;PMS5003;59889;50.700;5.440;2023-04-03T14:54:00;2;2;
72023;PMS5003;59889;50.700;5.440;2023-04-03T14:56:26;5;5;
72023;PMS5003;59889;50.700;5.440;2023-04-03T14:58:51;3;3;
72023;PMS5003;59889;50.700;5.440;2023-04-03T15:01:15;3;3;
72023;PMS5003;59889;50.700;5.440;2023-04-03T15:03:40;2;2;
72023;PMS5003;59889;50.700;5.440;2023-04-03T15:06:06;4;4;
72023;PMS5003;59889;50.700;5.440;2023-04-03T15:08:30;4;4;
72023;PMS5003;59889;50.700;5.440;2023-04-03T15:10:56;3;3;
72023;PMS5003;59889;50.700;5.440;2023-04-03T15:13:21;3;3;
72023;PMS5003;59889;50.700;5.440;2023-04-03T15:15:46;3;3;
72023;PMS5003;59889;50.700;5.440;2023-04-03T15:18:14;4;3;
72023;PMS5003;59889;50.700;5.440;2023-04-03T15:20:36;3;3;
72023;PMS5003;59889;50.700;5.440;2023-04-03T15:23:01;3;3;
72023;PMS5003;59889;50.700;5.440;2023-04-03T15:25:26;3;3;
72023;PMS5003;59889;50.700;5.440;2023-04-03T15:27:52;3;3;
72023;PMS5003;59889;50.700;5.440;2023-04-03T15:30:17;5;5;
72023;PMS5003;59889;50.700;5.440;2023-04-03T15:32:41;4;4;
72023;PMS5003;59889;50.700;5.440;2023-04-03T15:35:06;3;2;
72023;PMS5003;59889;50.700;5.440;2023-04-03T15:37:32;3;3;
72023;PMS5003;59889;50.700;5.440;2023-04-03T15:39:57;3;3;
72023;PMS5003;59889;50.700;5.440;2023-04-03T15:42:22;4;4;
72023;PMS5003;59889;50.700;5.440;2023-04-03T15:44:47;3;3;
72023;PMS5003;59889;50.700;5.440;2023-04-03T15:47:12;4;4;
72023;PMS5003;59889;50.700;5.440;2023-04-03T15:49:37;3;3;
72023;PMS5003;59889;50.700;5.440;2023-04-03T15:52:02;3;3;
72023;PMS5003;59889;50.700;5.440;2023-04-03T15:54:27;2;2;
72023;PMS5003;59889;50.700;5.440;2023-04-03T15:56:52;3;3;
72023;PMS5003;59889;50.700;5.440;2023-04-03T15:59:17;3;3;
72023;PMS5003;59889;50.700;5.440;2023-04-03T16:01:42;3;3;
72023;PMS5003;59889;50.700;5.440;2023-04-03T16:04:08;3;3;
72023;PMS5003;59889;50.700;5.440;2023-04-03T16:06:32;2;2;
72023;PMS5003;59889;50.700;5.440;2023-04-03T16:08:58;3;3;
72023;PMS5003;59889;50.700;5.440;2023-04-03T16:11:23;3;3;
72023;PMS5003;59889;50.700;5.440;2023-04-03T16:13:48;2;2;
72023;PMS5003;59889;50.700;5.440;2023-04-03T16:16:13;2;2;
72023;PMS5003;59889;50.700;5.440;2023-04-03T16:18:38;3;3;
72023;PMS5003;59889;50.700;5.440;2023-04-03T16:21:03;3;2;
72023;PMS5003;59889;50.700;5.440;2023-04-03T16:23:28;5;4;
72023;PMS5003;59889;50.700;5.440;2023-04-03T16:25:54;3;3;
72023;PMS5003;59889;50.700;5.440;2023-04-03T16:28:19;4;4;
72023;PMS5003;59889;50.700;5.440;2023-04-03T16:30:44;2;2;
72023;PMS5003;59889;50.700;5.440;2023-04-03T16:33:09;4;3;
72023;PMS5003;59889;50.700;5.440;2023-04-03T16:35:34;2;1;
72023;PMS5003;59889;50.700;5.440;2023-04-03T16:37:59;2;2;
72023;PMS5003;59889;50.700;5.440;2023-04-03T16:40:24;3;3;
72023;PMS5003;59889;50.700;5.440;2023-04-03T16:42:49;2;2;
72023;PMS5003;59889;50.700;5.440;2023-04-03T16:45:14;3;2;
72023;PMS5003;59889;50.700;5.440;2023-04-03T16:47:39;2;2;
72023;PMS5003;59889;50.700;5.440;2023-04-03T16:50:05;2;2;
72023;PMS5003;59889;50.700;5.440;2023-04-03T16:52:29;1;1;
72023;PMS5003;59889;50.700;5.440;2023-04-03T16:54:55;2;2;
72023;PMS5003;59889;50.700;5.440;2023-04-03T16:57:20;3;2;
72023;PMS5003;59889;50.700;5.440;2023-04-03T16:59:45;4;3;
72023;PMS5003;59889;50.700;5.440;2023-04-03T17:02:10;2;2;